createdAt,value
2019-04-13T00:01:01.394Z,3.00
2019-04-13T00:03:31.636Z,3.00
2019-04-13T00:06:11.340Z,3.00
2019-04-13T00:08:41.365Z,3.00
2019-04-13T00:11:30.208Z,2.90
2019-04-13T00:14:00.609Z,2.90
2019-04-13T00:16:30.689Z,2.80
2019-04-13T00:19:00.883Z,2.80
2019-04-13T00:21:30.813Z,2.80
2019-04-13T00:24:00.927Z,2.70
2019-04-13T00:26:30.832Z,2.70
2019-04-13T00:29:00.660Z,2.70
2019-04-13T00:31:30.890Z,2.60
2019-04-13T00:34:00.810Z,2.60
2019-04-13T00:36:34.270Z,2.60
2019-04-13T00:39:07.805Z,2.60
2019-04-13T00:41:38.780Z,2.50
2019-04-13T00:44:09.188Z,2.50
2019-04-13T00:46:39.204Z,2.40
2019-04-13T00:49:09.239Z,2.40
2019-04-13T00:51:39.665Z,2.30
2019-04-13T00:54:10.405Z,2.30
2019-04-13T00:56:40.431Z,2.20
2019-04-13T00:59:10.347Z,2.30
2019-04-13T01:01:40.384Z,2.20
2019-04-13T01:04:11.039Z,2.20
2019-04-13T01:06:41.549Z,2.10
2019-04-13T01:09:13.951Z,2.00
2019-04-13T01:11:46.703Z,2.00
2019-04-13T01:14:17.148Z,2.00
2019-04-13T01:16:47.120Z,1.90
2019-04-13T01:19:17.294Z,1.90
2019-04-13T01:21:47.793Z,1.90
2019-04-13T01:24:18.310Z,1.80
2019-04-13T01:26:48.234Z,1.80
2019-04-13T01:29:18.279Z,1.70
2019-04-13T01:31:48.790Z,1.70
2019-04-13T01:34:18.900Z,1.70
2019-04-13T01:36:49.022Z,1.60
2019-04-13T01:39:19.299Z,1.60
2019-04-13T01:41:49.168Z,1.60
2019-04-13T01:44:19.097Z,1.70
2019-04-13T01:46:49.234Z,1.70
2019-04-13T01:49:19.401Z,1.60
2019-04-13T01:51:49.760Z,1.70
2019-04-13T01:54:20.280Z,1.70
2019-04-13T01:56:50.366Z,1.60
2019-04-13T01:59:20.628Z,1.70
2019-04-13T02:02:08.581Z,1.70
2019-04-13T02:04:57.519Z,1.70
2019-04-13T02:07:46.100Z,1.70
2019-04-13T02:10:29.524Z,1.70
2019-04-13T02:12:59.674Z,1.70
2019-04-13T02:15:30.208Z,1.60
2019-04-13T02:18:00.348Z,1.60
2019-04-13T02:20:30.612Z,1.60
2019-04-13T02:23:01.230Z,1.50
2019-04-13T02:25:31.354Z,1.50
2019-04-13T02:28:01.576Z,1.50
2019-04-13T02:30:32.091Z,1.50
2019-04-13T02:33:03.170Z,1.40
2019-04-13T02:35:35.938Z,1.40
2019-04-13T02:38:05.545Z,1.30
2019-04-13T02:40:39.452Z,1.30
2019-04-13T02:43:09.996Z,1.30
2019-04-13T02:45:39.999Z,1.30
2019-04-13T02:48:10.493Z,1.30
2019-04-13T02:50:40.421Z,1.30
2019-04-13T02:53:10.520Z,1.20
2019-04-13T02:55:42.089Z,1.10
2019-04-13T02:58:31.493Z,1.10
2019-04-13T03:01:01.969Z,1.10
2019-04-13T03:03:32.699Z,1.00
2019-04-13T03:06:04.183Z,0.90
2019-04-13T03:08:35.039Z,0.80
2019-04-13T03:11:08.513Z,0.80
2019-04-13T03:13:37.728Z,0.70
2019-04-13T03:16:27.571Z,0.70
2019-04-13T03:19:09.028Z,0.70
2019-04-13T03:21:39.843Z,0.70
2019-04-13T03:24:10.436Z,0.70
2019-04-13T03:26:41.171Z,0.60
2019-04-13T03:29:11.584Z,0.60
2019-04-13T03:31:42.739Z,0.60
2019-04-13T03:34:13.305Z,0.60
2019-04-13T03:36:43.791Z,0.60
2019-04-13T03:39:14.277Z,0.60
2019-04-13T03:41:45.129Z,0.50
2019-04-13T03:44:15.574Z,0.50
2019-04-13T03:46:46.729Z,0.50
2019-04-13T03:49:17.042Z,0.50
2019-04-13T03:51:47.210Z,0.50
2019-04-13T03:54:17.713Z,0.50
2019-04-13T03:56:48.013Z,0.50
2019-04-13T03:59:18.423Z,0.50
2019-04-13T04:01:49.200Z,0.50
2019-04-13T04:04:19.482Z,0.50
2019-04-13T04:06:51.311Z,0.60
2019-04-13T04:09:22.385Z,0.50
2019-04-13T04:11:53.083Z,0.50
2019-04-13T04:14:23.236Z,0.50
2019-04-13T04:16:53.227Z,0.50
2019-04-13T04:19:23.733Z,0.50
2019-04-13T04:21:54.024Z,0.50
2019-04-13T04:24:26.298Z,0.50
2019-04-13T04:27:01.139Z,0.50
2019-04-13T04:29:31.345Z,0.50
2019-04-13T04:32:01.215Z,0.50
2019-04-13T04:34:31.669Z,0.50
2019-04-13T04:37:02.194Z,0.40
2019-04-13T04:39:32.409Z,0.30
2019-04-13T04:42:03.752Z,0.30
2019-04-13T04:44:34.618Z,0.20
2019-04-13T04:47:05.078Z,0.20
2019-04-13T04:49:36.698Z,0.20
2019-04-13T04:52:07.661Z,0.20
2019-04-13T04:54:37.999Z,0.20
2019-04-13T04:57:09.189Z,0.20
2019-04-13T04:59:41.063Z,0.20
2019-04-13T05:02:12.453Z,0.10
2019-04-13T05:04:44.125Z,0.20
2019-04-13T05:07:18.918Z,0.20
2019-04-13T05:09:48.969Z,0.30
2019-04-13T05:12:19.350Z,0.30
2019-04-13T05:14:50.293Z,0.30
2019-04-13T05:17:20.824Z,0.30
2019-04-13T05:19:51.426Z,0.20
2019-04-13T05:22:26.637Z,0.20
2019-04-13T05:24:53.835Z,0.20
2019-04-13T05:27:23.963Z,0.20
2019-04-13T05:29:54.927Z,0.20
2019-04-13T05:32:25.235Z,0.30
2019-04-13T05:34:55.374Z,0.30
2019-04-13T05:37:25.520Z,0.30
2019-04-13T05:39:57.269Z,0.40
2019-04-13T05:42:27.589Z,0.50
2019-04-13T05:44:58.043Z,0.60
2019-04-13T05:47:29.714Z,0.60
2019-04-13T05:49:59.689Z,0.60
2019-04-13T05:52:30.054Z,0.60
2019-04-13T05:55:00.474Z,0.70
2019-04-13T05:57:31.638Z,0.80
2019-04-13T06:00:03.124Z,0.90
2019-04-13T06:02:35.732Z,0.90
2019-04-13T06:05:09.604Z,0.80
2019-04-13T06:07:40.300Z,0.80
2019-04-13T06:10:10.725Z,0.70
2019-04-13T06:12:41.268Z,0.80
2019-04-13T06:15:12.158Z,0.80
2019-04-13T06:17:42.234Z,0.80
2019-04-13T06:20:15.315Z,0.90
2019-04-13T06:22:47.181Z,0.90
2019-04-13T06:25:17.823Z,1.00
2019-04-13T06:27:47.848Z,1.20
2019-04-13T06:30:46.018Z,1.20
2019-04-13T06:33:26.837Z,1.20
2019-04-13T06:35:57.283Z,1.30
2019-04-13T06:38:35.608Z,1.30
2019-04-13T06:41:06.328Z,1.40
2019-04-13T06:43:39.275Z,1.50
2019-04-13T06:46:10.250Z,1.50
2019-04-13T06:48:40.950Z,1.50
2019-04-13T06:51:11.826Z,1.70
2019-04-13T06:53:42.749Z,1.70
2019-04-13T06:56:13.358Z,1.90
2019-04-13T06:58:43.555Z,1.90
2019-04-13T07:01:15.551Z,1.90
2019-04-13T07:03:54.463Z,2.00
2019-04-13T07:06:26.104Z,2.00
2019-04-13T07:09:14.504Z,2.00
2019-04-13T07:12:12.272Z,2.10
2019-04-13T07:14:43.241Z,2.20
2019-04-13T07:17:37.914Z,2.40
2019-04-13T07:20:08.510Z,2.60
2019-04-13T07:22:39.254Z,2.70
2019-04-13T07:25:10.720Z,2.80
2019-04-13T07:27:40.939Z,2.90
2019-04-13T07:30:14.232Z,2.90
2019-04-13T07:32:44.306Z,3.00
2019-04-13T07:35:15.728Z,3.20
2019-04-13T07:37:47.094Z,3.30
2019-04-13T07:40:20.383Z,3.40
2019-04-13T07:43:10.662Z,3.30
2019-04-13T07:46:18.285Z,3.30
2019-04-13T07:49:06.208Z,3.40
2019-04-13T07:51:55.548Z,3.50
2019-04-13T07:54:26.064Z,3.60
2019-04-13T07:57:02.195Z,3.80
2019-04-13T07:59:33.116Z,3.80
2019-04-13T08:02:08.129Z,3.80
2019-04-13T08:04:38.554Z,3.80
2019-04-13T08:07:08.666Z,3.80
2019-04-13T08:09:38.829Z,3.70
2019-04-13T08:12:19.034Z,3.80
2019-04-13T08:14:51.355Z,3.90
2019-04-13T08:17:41.139Z,4.00
2019-04-13T08:20:33.930Z,4.20
2019-04-13T08:23:08.728Z,4.40
2019-04-13T08:25:44.790Z,4.60
2019-04-13T08:28:16.479Z,4.60
2019-04-13T08:30:57.836Z,4.70
2019-04-13T08:33:35.875Z,4.80
2019-04-13T08:36:42.370Z,4.80
2019-04-13T08:38:42.329Z,4.70
2019-04-13T08:41:12.542Z,4.80
2019-04-13T08:43:45.253Z,4.80
2019-04-13T08:46:20.266Z,4.90
2019-04-13T08:48:51.895Z,5.00
2019-04-13T08:51:25.186Z,5.10
2019-04-13T08:54:26.398Z,5.00
2019-04-13T08:57:04.810Z,5.10
2019-04-13T08:59:36.938Z,4.80
2019-04-13T09:02:15.486Z,4.70
2019-04-13T09:05:00.091Z,4.80
2019-04-13T09:07:30.019Z,4.90
2019-04-13T09:13:32.661Z,5.20
2019-04-13T09:16:06.530Z,5.00
2019-04-13T09:18:59.039Z,4.90
2019-04-13T09:21:47.752Z,4.90
2019-04-13T09:24:19.478Z,5.10
2019-04-13T09:26:49.923Z,5.40
2019-04-13T09:29:25.719Z,5.60
2019-04-13T09:32:38.422Z,5.80
2019-04-13T09:35:10.596Z,5.90
2019-04-13T09:37:47.602Z,5.70
2019-04-13T09:40:28.126Z,5.50
2019-04-13T09:42:59.623Z,5.50
2019-04-13T09:45:44.121Z,5.70
2019-04-13T09:48:16.370Z,5.70
2019-04-13T09:50:48.290Z,5.70
2019-04-13T09:53:28.643Z,5.90
2019-04-13T09:56:13.201Z,5.90
2019-04-13T09:58:46.575Z,5.70
2019-04-13T10:01:18.808Z,5.80
2019-04-13T10:03:54.563Z,5.80
2019-04-13T10:06:26.313Z,5.80
2019-04-13T10:08:59.444Z,5.80
2019-04-13T10:11:41.290Z,5.90
2019-04-13T10:14:21.186Z,6.00
2019-04-13T10:19:48.619Z,6.00
2019-04-13T10:22:22.050Z,6.10
2019-04-13T10:24:55.510Z,6.10
2019-04-13T10:27:28.510Z,6.10
2019-04-13T10:30:02.783Z,6.30
2019-04-13T10:32:35.535Z,6.30
2019-04-13T10:35:05.957Z,6.20
2019-04-13T10:37:38.925Z,6.30
2019-04-13T10:40:12.008Z,6.30
2019-04-13T10:42:43.425Z,6.10
2019-04-13T10:45:31.025Z,6.10
2019-04-13T10:48:11.220Z,6.20
2019-04-13T10:50:47.795Z,6.10
2019-04-13T10:53:19.214Z,5.90
2019-04-13T10:55:53.956Z,6.00
2019-04-13T10:58:30.213Z,6.20
2019-04-13T11:01:14.559Z,6.30
2019-04-13T11:03:46.355Z,6.20
2019-04-13T11:09:28.427Z,6.10
2019-04-13T11:12:03.753Z,6.00
2019-04-13T11:14:33.901Z,6.10
2019-04-13T11:17:07.250Z,6.10
2019-04-13T11:19:40.569Z,6.00
2019-04-13T11:22:11.346Z,6.20
2019-04-13T11:24:52.291Z,6.30
2019-04-13T11:27:22.500Z,6.40
2019-04-13T11:29:55.457Z,6.70
2019-04-13T11:32:31.397Z,6.90
2019-04-13T11:35:04.361Z,7.00
2019-04-13T11:37:35.805Z,7.00
2019-04-13T11:40:07.371Z,7.10
2019-04-13T11:43:03.608Z,7.20
2019-04-13T11:46:00.259Z,7.00
2019-04-13T11:48:45.955Z,6.60
2019-04-13T11:51:35.050Z,6.40
2019-04-13T11:54:05.750Z,6.00
2019-04-13T11:56:40.408Z,5.90
2019-04-13T11:59:14.374Z,5.70
2019-04-13T12:02:11.110Z,5.60
2019-04-13T12:05:01.815Z,5.60
2019-04-13T12:07:53.482Z,5.60
2019-04-13T12:10:56.580Z,5.50
2019-04-13T12:13:38.595Z,5.40
2019-04-13T12:16:36.811Z,5.40
2019-04-13T12:19:18.183Z,5.50
2019-04-13T12:22:25.431Z,5.70
2019-04-13T12:25:01.643Z,5.70
2019-04-13T12:27:33.855Z,5.70
2019-04-13T12:30:10.668Z,5.70
2019-04-13T12:32:46.885Z,5.90
2019-04-13T12:35:14.678Z,5.90
2019-04-13T12:37:45.184Z,6.00
2019-04-13T12:40:29.108Z,6.00
2019-04-13T12:42:59.309Z,6.00
2019-04-13T12:45:32.909Z,5.80
2019-04-13T12:48:03.493Z,5.70
2019-04-13T12:50:36.221Z,5.80
2019-04-13T12:53:09.079Z,6.00
2019-04-13T12:55:45.856Z,6.20
2019-04-13T12:58:24.694Z,6.50
2019-04-13T13:01:06.401Z,6.60
2019-04-13T13:03:41.398Z,6.60
2019-04-13T13:06:13.466Z,6.50
2019-04-13T13:08:43.208Z,6.40
2019-04-13T13:11:15.943Z,6.30
2019-04-13T13:13:46.376Z,6.40
2019-04-13T13:16:16.591Z,6.30
2019-04-13T13:18:51.990Z,6.20
2019-04-13T13:21:22.270Z,6.20
2019-04-13T13:23:54.998Z,6.40
2019-04-13T13:26:25.111Z,6.60
2019-04-13T13:28:55.199Z,6.60
2019-04-13T13:31:32.426Z,6.70
2019-04-13T13:34:02.234Z,6.70
2019-04-13T13:36:32.390Z,6.60
2019-04-13T13:39:11.566Z,6.60
2019-04-13T13:41:42.379Z,6.50
2019-04-13T13:44:12.490Z,6.60
2019-04-13T13:46:45.897Z,6.70
2019-04-13T13:49:16.179Z,6.70
2019-04-13T13:51:55.591Z,6.80
2019-04-13T13:54:28.889Z,6.80
2019-04-13T13:57:02.865Z,6.80
2019-04-13T13:59:33.469Z,6.80
2019-04-13T14:02:20.987Z,6.80
2019-04-13T14:04:51.011Z,6.80
2019-04-13T14:07:22.415Z,6.80
2019-04-13T14:10:13.388Z,6.90
2019-04-13T14:12:50.921Z,6.90
2019-04-13T14:15:21.091Z,6.90
2019-04-13T14:17:56.204Z,6.90
2019-04-13T14:20:27.557Z,7.00
2019-04-13T14:22:57.606Z,7.10
2019-04-13T14:25:42.849Z,7.20
2019-04-13T14:28:19.739Z,7.30
2019-04-13T14:30:54.184Z,7.50
2019-04-13T14:33:24.375Z,7.60
2019-04-13T14:36:01.780Z,7.60
2019-04-13T14:38:31.856Z,7.30
2019-04-13T14:41:33.677Z,7.00
2019-04-13T14:44:05.958Z,6.80
2019-04-13T14:46:36.165Z,6.30
2019-04-13T14:49:09.581Z,5.80
2019-04-13T14:51:39.814Z,5.20
2019-04-13T14:54:10.243Z,4.90
2019-04-13T14:56:40.731Z,4.60
2019-04-13T14:59:11.057Z,4.50
2019-04-13T15:01:41.082Z,4.40
2019-04-13T15:04:12.645Z,4.30
2019-04-13T15:06:42.829Z,4.30
2019-04-13T15:09:17.211Z,4.20
2019-04-13T15:11:47.758Z,4.30
2019-04-13T15:14:17.798Z,4.30
2019-04-13T15:16:49.687Z,4.50
2019-04-13T15:19:39.125Z,4.70
2019-04-13T15:22:10.651Z,5.00
2019-04-13T15:24:39.119Z,5.10
2019-04-13T15:27:09.171Z,5.30
2019-04-13T15:29:40.178Z,5.10
2019-04-13T15:32:12.624Z,5.00
2019-04-13T15:35:07.929Z,4.90
2019-04-13T15:37:43.091Z,4.70
2019-04-13T15:40:15.150Z,4.30
2019-04-13T15:42:50.510Z,3.80
2019-04-13T15:45:14.231Z,3.60
2019-04-13T15:47:44.653Z,3.40
2019-04-13T15:50:17.772Z,3.50
2019-04-13T15:52:47.422Z,3.60
2019-04-13T15:55:18.637Z,3.60
2019-04-13T15:57:51.288Z,3.60
2019-04-13T16:00:21.552Z,3.50
2019-04-13T16:02:52.034Z,3.40
2019-04-13T16:05:33.037Z,3.50
2019-04-13T16:08:05.258Z,3.50
2019-04-13T16:10:45.855Z,3.60
2019-04-13T16:13:22.151Z,3.60
2019-04-13T16:16:20.613Z,3.60
2019-04-13T16:18:51.867Z,3.70
2019-04-13T16:21:22.094Z,3.80
2019-04-13T16:23:52.259Z,3.90
2019-04-13T16:26:25.703Z,3.90
2019-04-13T16:29:12.722Z,4.00
2019-04-13T16:32:06.459Z,4.10
2019-04-13T16:35:04.471Z,4.10
2019-04-13T16:37:50.536Z,4.00
2019-04-13T16:40:22.805Z,4.00
2019-04-13T16:42:53.014Z,4.00
2019-04-13T16:45:42.231Z,4.00
2019-04-13T16:48:39.391Z,4.10
2019-04-13T16:51:43.615Z,4.10
2019-04-13T16:54:45.462Z,4.20
2019-04-13T16:57:29.423Z,4.10
2019-04-13T17:00:18.706Z,4.00
2019-04-13T17:03:20.792Z,3.90
2019-04-13T17:05:54.069Z,3.90
2019-04-13T17:08:26.743Z,3.60
2019-04-13T17:10:59.094Z,3.60
2019-04-13T17:13:30.606Z,3.50
2019-04-13T17:16:04.991Z,3.40
2019-04-13T17:18:48.169Z,3.40
2019-04-13T17:21:40.673Z,3.30
2019-04-13T17:24:38.680Z,3.30
2019-04-13T17:27:30.481Z,3.20
2019-04-13T17:30:24.012Z,3.20
2019-04-13T17:33:06.327Z,3.20
2019-04-13T17:35:39.235Z,3.20
2019-04-13T17:38:20.021Z,3.20
2019-04-13T17:41:18.697Z,3.10
2019-04-13T17:43:57.926Z,3.10
2019-04-13T17:46:59.434Z,3.10
2019-04-13T17:49:57.257Z,3.00
2019-04-13T17:53:01.480Z,3.00
2019-04-13T17:55:42.031Z,3.10
2019-04-13T17:58:31.771Z,3.00
2019-04-13T18:01:25.266Z,3.00
2019-04-13T18:04:41.511Z,3.00
2019-04-13T18:07:32.235Z,2.90
2019-04-13T18:10:40.690Z,3.00
2019-04-13T18:13:42.137Z,3.10
2019-04-13T18:16:29.865Z,3.10
2019-04-13T18:19:10.498Z,3.00
2019-04-13T18:21:42.760Z,3.00
2019-04-13T18:24:28.908Z,2.90
2019-04-13T18:26:58.944Z,2.90
2019-04-13T18:29:30.273Z,2.90
2019-04-13T18:32:00.897Z,2.80
2019-04-13T18:34:32.162Z,2.70
2019-04-13T18:37:03.595Z,2.70
2019-04-13T18:39:34.937Z,2.70
2019-04-13T18:42:07.548Z,2.60
2019-04-13T18:44:40.791Z,2.60
2019-04-13T18:50:04.204Z,2.70
2019-04-13T18:52:36.880Z,2.70
2019-04-13T18:55:08.072Z,2.70
2019-04-13T18:57:43.215Z,2.60
2019-04-13T19:00:21.404Z,2.60
2019-04-13T19:03:07.767Z,2.60
2019-04-13T19:05:43.242Z,2.60
2019-04-13T19:08:13.936Z,2.60
2019-04-13T19:10:46.456Z,2.60
2019-04-13T19:13:16.948Z,2.60
2019-04-13T19:15:48.954Z,2.60
2019-04-13T19:18:30.414Z,2.60
2019-04-13T19:21:00.894Z,2.60
2019-04-13T19:23:34.039Z,2.60
2019-04-13T19:26:06.714Z,2.70
2019-04-13T19:28:41.131Z,2.70
2019-04-13T19:31:14.513Z,2.70
2019-04-13T19:33:53.825Z,2.70
2019-04-13T19:36:27.225Z,2.70
2019-04-13T19:39:00.560Z,2.70
2019-04-13T19:41:37.024Z,2.80
2019-04-13T19:46:47.939Z,2.80
2019-04-13T19:49:23.745Z,2.80
2019-04-13T19:52:02.658Z,2.80
2019-04-13T19:54:37.440Z,2.80
2019-04-13T19:57:07.847Z,2.80
2019-04-13T19:59:39.934Z,2.90
2019-04-13T20:02:10.449Z,2.80
2019-04-13T20:04:42.474Z,2.80
2019-04-13T20:07:15.474Z,2.80
2019-04-13T20:09:46.273Z,2.80
2019-04-13T20:12:25.779Z,2.70
2019-04-13T20:14:57.188Z,2.70
2019-04-13T20:17:28.049Z,2.70
2019-04-13T20:20:01.293Z,2.60
2019-04-13T20:22:45.082Z,2.60
2019-04-13T20:25:17.679Z,2.60
2019-04-13T20:27:49.800Z,2.50
2019-04-13T20:30:21.512Z,2.40
2019-04-13T20:32:53.735Z,2.40
2019-04-13T20:35:28.126Z,2.40
2019-04-13T20:38:02.076Z,2.40
2019-04-13T20:40:51.264Z,2.40
2019-04-13T20:43:25.291Z,2.40
2019-04-13T20:45:55.380Z,2.40
2019-04-13T20:48:27.155Z,2.30
2019-04-13T20:51:00.201Z,2.30
2019-04-13T20:53:33.220Z,2.40
2019-04-13T20:56:05.496Z,2.40
2019-04-13T20:58:36.369Z,2.40
2019-04-13T21:01:08.246Z,2.40
2019-04-13T21:03:51.215Z,2.40
2019-04-13T21:06:30.595Z,2.30
2019-04-13T21:09:07.781Z,2.40
2019-04-13T21:11:39.431Z,2.40
2019-04-13T21:14:23.051Z,2.40
2019-04-13T21:16:45.171Z,2.30
2019-04-13T21:19:15.432Z,2.30
2019-04-13T21:21:45.580Z,2.30
2019-04-13T21:24:15.951Z,2.20
2019-04-13T21:26:48.191Z,2.20
2019-04-13T21:29:20.400Z,2.20
2019-04-13T21:31:51.965Z,2.20
2019-04-13T21:34:22.473Z,2.30
2019-04-13T21:36:52.815Z,2.30
2019-04-13T21:39:24.378Z,2.30
2019-04-13T21:42:08.964Z,2.30
2019-04-13T21:44:42.084Z,2.20
2019-04-13T21:47:14.177Z,2.20
2019-04-13T21:49:47.075Z,2.20
2019-04-13T21:52:30.584Z,2.20
2019-04-13T21:55:02.594Z,2.20
2019-04-13T21:57:35.458Z,2.20
2019-04-13T22:00:16.011Z,2.30
2019-04-13T22:02:48.435Z,2.20
2019-04-13T22:05:20.280Z,2.20
2019-04-13T22:07:50.735Z,2.20
2019-04-13T22:10:22.259Z,2.20
2019-04-13T22:12:54.604Z,2.20
2019-04-13T22:15:35.839Z,2.20
2019-04-13T22:18:08.203Z,2.20
2019-04-13T22:20:40.766Z,2.20
2019-04-13T22:23:12.840Z,2.30
2019-04-13T22:25:43.070Z,2.30
2019-04-13T22:28:16.201Z,2.30
2019-04-13T22:31:09.211Z,2.30
2019-04-13T22:33:43.509Z,2.30
2019-04-13T22:36:21.368Z,2.40
2019-04-13T22:38:52.549Z,2.40
2019-04-13T22:41:22.567Z,2.40
2019-04-13T22:43:54.442Z,2.30
2019-04-13T22:46:24.620Z,2.40
2019-04-13T22:49:08.068Z,2.40
2019-04-13T22:51:57.485Z,2.40
2019-04-13T22:54:41.155Z,2.30
2019-04-13T22:57:30.438Z,2.30
2019-04-13T23:00:02.087Z,2.30
2019-04-13T23:02:58.197Z,2.30
2019-04-13T23:05:28.933Z,2.20
2019-04-13T23:08:01.008Z,2.30
2019-04-13T23:10:31.096Z,2.30
2019-04-13T23:13:01.535Z,2.30
2019-04-13T23:15:37.122Z,2.30
2019-04-13T23:18:05.900Z,2.30
2019-04-13T23:20:36.414Z,2.30
2019-04-13T23:23:09.624Z,2.40
2019-04-13T23:25:42.215Z,2.40
2019-04-13T23:28:13.894Z,2.40
2019-04-13T23:30:44.468Z,2.50
2019-04-13T23:33:15.153Z,2.50
2019-04-13T23:35:45.214Z,2.50
2019-04-13T23:38:15.879Z,2.40
2019-04-13T23:40:46.541Z,2.40
2019-04-13T23:43:16.831Z,2.50
2019-04-13T23:45:47.094Z,2.50
2019-04-13T23:48:20.088Z,2.50
2019-04-13T23:50:50.300Z,2.50
2019-04-13T23:53:20.585Z,2.50
2019-04-13T23:56:12.625Z,2.50
2019-04-13T23:58:58.078Z,2.60
